sensor_id;sensor_type;location;lat;lon;timestamp;P1;durP1;ratioP1;P2;durP2;ratioP2
8871;SDS011;4472;52.092;9.820;2023-11-22T00:02:32;6.80;;;5.10;;
8871;SDS011;4472;52.092;9.820;2023-11-22T00:05:20;6.47;;;5.03;;
8871;SDS011;4472;52.092;9.820;2023-11-22T00:08:08;9.33;;;5.43;;
8871;SDS011;4472;52.092;9.820;2023-11-22T00:10:55;5.43;;;4.50;;
8871;SDS011;4472;52.092;9.820;2023-11-22T00:13:44;8.33;;;5.10;;
8871;SDS011;4472;52.092;9.820;2023-11-22T00:16:32;7.87;;;4.67;;
8871;SDS011;4472;52.092;9.820;2023-11-22T00:19:22;8.97;;;4.77;;
8871;SDS011;4472;52.092;9.820;2023-11-22T00:22:09;10.33;;;4.43;;
8871;SDS011;4472;52.092;9.820;2023-11-22T00:24:58;5.77;;;4.50;;
8871;SDS011;4472;52.092;9.820;2023-11-22T00:27:47;5.40;;;3.93;;
8871;SDS011;4472;52.092;9.820;2023-11-22T00:30:36;6.10;;;4.87;;
8871;SDS011;4472;52.092;9.820;2023-11-22T00:33:23;6.80;;;4.83;;
8871;SDS011;4472;52.092;9.820;2023-11-22T00:36:10;7.33;;;4.60;;
8871;SDS011;4472;52.092;9.820;2023-11-22T00:38:58;9.27;;;4.80;;
8871;SDS011;4472;52.092;9.820;2023-11-22T00:41:45;7.23;;;5.10;;
8871;SDS011;4472;52.092;9.820;2023-11-22T00:44:33;7.13;;;4.53;;
8871;SDS011;4472;52.092;9.820;2023-11-22T00:47:22;6.93;;;5.53;;
8871;SDS011;4472;52.092;9.820;2023-11-22T00:50:10;10.30;;;5.20;;
8871;SDS011;4472;52.092;9.820;2023-11-22T00:52:58;11.23;;;5.30;;
8871;SDS011;4472;52.092;9.820;2023-11-22T00:55:45;9.53;;;5.20;;
8871;SDS011;4472;52.092;9.820;2023-11-22T00:58:32;9.50;;;4.83;;
8871;SDS011;4472;52.092;9.820;2023-11-22T01:01:20;10.43;;;6.00;;
8871;SDS011;4472;52.092;9.820;2023-11-22T01:04:09;9.10;;;5.80;;
8871;SDS011;4472;52.092;9.820;2023-11-22T01:06:57;10.23;;;5.23;;
8871;SDS011;4472;52.092;9.820;2023-11-22T01:09:44;11.00;;;5.80;;
8871;SDS011;4472;52.092;9.820;2023-11-22T01:12:32;14.37;;;6.37;;
8871;SDS011;4472;52.092;9.820;2023-11-22T01:15:19;7.13;;;5.43;;
8871;SDS011;4472;52.092;9.820;2023-11-22T01:18:07;9.17;;;5.10;;
8871;SDS011;4472;52.092;9.820;2023-11-22T01:20:55;9.07;;;5.53;;
8871;SDS011;4472;52.092;9.820;2023-11-22T01:23:42;7.47;;;4.90;;
8871;SDS011;4472;52.092;9.820;2023-11-22T01:26:31;12.43;;;5.37;;
8871;SDS011;4472;52.092;9.820;2023-11-22T01:29:18;6.67;;;4.87;;
8871;SDS011;4472;52.092;9.820;2023-11-22T01:32:06;10.57;;;5.50;;
8871;SDS011;4472;52.092;9.820;2023-11-22T01:34:53;8.07;;;5.07;;
8871;SDS011;4472;52.092;9.820;2023-11-22T01:37:45;6.73;;;4.90;;
8871;SDS011;4472;52.092;9.820;2023-11-22T01:40:34;8.30;;;5.53;;
8871;SDS011;4472;52.092;9.820;2023-11-22T01:43:29;17.83;;;12.27;;
8871;SDS011;4472;52.092;9.820;2023-11-22T01:46:20;14.43;;;8.97;;
8871;SDS011;4472;52.092;9.820;2023-11-22T01:49:09;12.87;;;7.80;;
8871;SDS011;4472;52.092;9.820;2023-11-22T01:51:57;16.77;;;8.43;;
8871;SDS011;4472;52.092;9.820;2023-11-22T01:54:45;9.83;;;7.57;;
8871;SDS011;4472;52.092;9.820;2023-11-22T01:57:33;9.90;;;6.23;;
8871;SDS011;4472;52.092;9.820;2023-11-22T02:00:21;9.17;;;6.10;;
8871;SDS011;4472;52.092;9.820;2023-11-22T02:03:10;9.37;;;6.03;;
8871;SDS011;4472;52.092;9.820;2023-11-22T02:06:04;9.17;;;5.80;;
8871;SDS011;4472;52.092;9.820;2023-11-22T02:08:52;8.50;;;4.93;;
8871;SDS011;4472;52.092;9.820;2023-11-22T02:11:42;8.77;;;5.23;;
8871;SDS011;4472;52.092;9.820;2023-11-22T02:14:35;8.43;;;4.77;;
8871;SDS011;4472;52.092;9.820;2023-11-22T02:17:23;7.30;;;4.70;;
8871;SDS011;4472;52.092;9.820;2023-11-22T02:20:11;7.70;;;4.97;;
8871;SDS011;4472;52.092;9.820;2023-11-22T02:23:03;8.37;;;5.03;;
8871;SDS011;4472;52.092;9.820;2023-11-22T02:25:55;9.47;;;4.73;;
8871;SDS011;4472;52.092;9.820;2023-11-22T02:28:44;8.20;;;4.57;;
8871;SDS011;4472;52.092;9.820;2023-11-22T02:31:31;12.03;;;4.93;;
8871;SDS011;4472;52.092;9.820;2023-11-22T02:34:20;9.97;;;6.13;;
8871;SDS011;4472;52.092;9.820;2023-11-22T02:37:08;10.17;;;6.57;;
8871;SDS011;4472;52.092;9.820;2023-11-22T02:39:58;8.97;;;5.63;;
8871;SDS011;4472;52.092;9.820;2023-11-22T02:42:50;9.43;;;5.80;;
8871;SDS011;4472;52.092;9.820;2023-11-22T02:45:38;8.10;;;5.00;;
8871;SDS011;4472;52.092;9.820;2023-11-22T02:48:26;7.60;;;5.40;;
8871;SDS011;4472;52.092;9.820;2023-11-22T02:51:14;7.83;;;5.30;;
8871;SDS011;4472;52.092;9.820;2023-11-22T02:54:02;8.60;;;5.40;;
8871;SDS011;4472;52.092;9.820;2023-11-22T02:56:52;8.57;;;5.40;;
8871;SDS011;4472;52.092;9.820;2023-11-22T02:59:41;12.33;;;6.10;;
8871;SDS011;4472;52.092;9.820;2023-11-22T03:02:29;9.07;;;6.07;;
8871;SDS011;4472;52.092;9.820;2023-11-22T03:05:17;12.37;;;5.83;;
8871;SDS011;4472;52.092;9.820;2023-11-22T03:08:05;9.17;;;6.00;;
8871;SDS011;4472;52.092;9.820;2023-11-22T03:10:56;7.50;;;5.27;;
8871;SDS011;4472;52.092;9.820;2023-11-22T03:13:45;8.57;;;5.60;;
8871;SDS011;4472;52.092;9.820;2023-11-22T03:16:34;12.07;;;5.53;;
8871;SDS011;4472;52.092;9.820;2023-11-22T03:19:25;9.50;;;5.27;;
8871;SDS011;4472;52.092;9.820;2023-11-22T03:22:13;8.40;;;5.30;;
8871;SDS011;4472;52.092;9.820;2023-11-22T03:25:01;8.73;;;5.37;;
8871;SDS011;4472;52.092;9.820;2023-11-22T03:27:49;8.13;;;5.27;;
8871;SDS011;4472;52.092;9.820;2023-11-22T03:30:38;9.03;;;5.23;;
8871;SDS011;4472;52.092;9.820;2023-11-22T03:33:26;7.97;;;5.50;;
8871;SDS011;4472;52.092;9.820;2023-11-22T03:36:14;9.50;;;5.50;;
8871;SDS011;4472;52.092;9.820;2023-11-22T03:39:02;7.90;;;5.20;;
8871;SDS011;4472;52.092;9.820;2023-11-22T03:41:49;9.73;;;5.07;;
8871;SDS011;4472;52.092;9.820;2023-11-22T03:44:37;10.07;;;4.90;;
8871;SDS011;4472;52.092;9.820;2023-11-22T03:47:26;6.83;;;4.80;;
8871;SDS011;4472;52.092;9.820;2023-11-22T03:50:13;7.10;;;5.27;;
8871;SDS011;4472;52.092;9.820;2023-11-22T03:53:01;7.33;;;5.70;;
8871;SDS011;4472;52.092;9.820;2023-11-22T03:55:49;6.80;;;4.80;;
8871;SDS011;4472;52.092;9.820;2023-11-22T03:58:37;6.27;;;4.93;;
8871;SDS011;4472;52.092;9.820;2023-11-22T04:01:24;8.17;;;5.67;;
8871;SDS011;4472;52.092;9.820;2023-11-22T04:04:14;8.10;;;5.70;;
8871;SDS011;4472;52.092;9.820;2023-11-22T04:07:01;13.57;;;5.13;;
8871;SDS011;4472;52.092;9.820;2023-11-22T04:09:49;10.97;;;5.30;;
8871;SDS011;4472;52.092;9.820;2023-11-22T04:12:36;10.07;;;5.73;;
8871;SDS011;4472;52.092;9.820;2023-11-22T04:15:24;13.67;;;6.07;;
8871;SDS011;4472;52.092;9.820;2023-11-22T04:18:12;7.07;;;5.47;;
8871;SDS011;4472;52.092;9.820;2023-11-22T04:21:01;10.30;;;5.40;;
8871;SDS011;4472;52.092;9.820;2023-11-22T04:23:50;11.07;;;6.50;;
8871;SDS011;4472;52.092;9.820;2023-11-22T04:26:37;13.90;;;5.90;;
8871;SDS011;4472;52.092;9.820;2023-11-22T04:29:25;10.60;;;6.00;;
8871;SDS011;4472;52.092;9.820;2023-11-22T04:32:12;9.03;;;5.37;;
8871;SDS011;4472;52.092;9.820;2023-11-22T04:35:00;7.90;;;4.80;;
8871;SDS011;4472;52.092;9.820;2023-11-22T04:37:50;7.90;;;5.23;;
8871;SDS011;4472;52.092;9.820;2023-11-22T04:40:40;7.90;;;5.30;;
8871;SDS011;4472;52.092;9.820;2023-11-22T04:43:28;8.23;;;5.57;;
8871;SDS011;4472;52.092;9.820;2023-11-22T04:46:17;11.33;;;5.70;;
8871;SDS011;4472;52.092;9.820;2023-11-22T04:49:04;8.90;;;5.53;;
8871;SDS011;4472;52.092;9.820;2023-11-22T04:51:53;9.93;;;6.33;;
8871;SDS011;4472;52.092;9.820;2023-11-22T04:54:41;9.30;;;5.50;;
8871;SDS011;4472;52.092;9.820;2023-11-22T04:57:30;11.73;;;5.30;;
8871;SDS011;4472;52.092;9.820;2023-11-22T05:00:17;7.80;;;5.00;;
8871;SDS011;4472;52.092;9.820;2023-11-22T05:03:05;9.73;;;5.43;;
8871;SDS011;4472;52.092;9.820;2023-11-22T05:05:53;11.53;;;5.10;;
8871;SDS011;4472;52.092;9.820;2023-11-22T05:08:40;9.03;;;5.27;;
8871;SDS011;4472;52.092;9.820;2023-11-22T05:11:29;8.00;;;5.00;;
8871;SDS011;4472;52.092;9.820;2023-11-22T05:14:17;9.90;;;5.60;;
8871;SDS011;4472;52.092;9.820;2023-11-22T05:17:05;9.90;;;5.77;;
8871;SDS011;4472;52.092;9.820;2023-11-22T05:19:59;11.80;;;6.27;;
8871;SDS011;4472;52.092;9.820;2023-11-22T05:22:46;10.50;;;5.93;;
8871;SDS011;4472;52.092;9.820;2023-11-22T05:28:42;11.17;;;7.17;;
8871;SDS011;4472;52.092;9.820;2023-11-22T05:31:30;11.73;;;6.80;;
8871;SDS011;4472;52.092;9.820;2023-11-22T05:34:18;14.37;;;8.13;;
8871;SDS011;4472;52.092;9.820;2023-11-22T05:37:05;15.40;;;8.33;;
8871;SDS011;4472;52.092;9.820;2023-11-22T05:39:54;19.53;;;10.07;;
8871;SDS011;4472;52.092;9.820;2023-11-22T05:42:41;13.03;;;7.87;;
8871;SDS011;4472;52.092;9.820;2023-11-22T05:45:30;15.03;;;8.30;;
8871;SDS011;4472;52.092;9.820;2023-11-22T05:48:19;19.07;;;7.40;;
8871;SDS011;4472;52.092;9.820;2023-11-22T05:51:06;24.13;;;11.13;;
8871;SDS011;4472;52.092;9.820;2023-11-22T05:53:55;26.37;;;12.13;;
8871;SDS011;4472;52.092;9.820;2023-11-22T05:56:42;23.10;;;11.87;;
8871;SDS011;4472;52.092;9.820;2023-11-22T05:59:30;19.00;;;9.73;;
8871;SDS011;4472;52.092;9.820;2023-11-22T06:02:19;16.67;;;8.97;;
8871;SDS011;4472;52.092;9.820;2023-11-22T06:05:14;16.73;;;9.10;;
8871;SDS011;4472;52.092;9.820;2023-11-22T06:08:02;15.33;;;8.87;;
8871;SDS011;4472;52.092;9.820;2023-11-22T06:10:50;12.60;;;7.90;;
8871;SDS011;4472;52.092;9.820;2023-11-22T06:13:38;11.67;;;7.27;;
8871;SDS011;4472;52.092;9.820;2023-11-22T06:16:26;10.77;;;6.80;;
8871;SDS011;4472;52.092;9.820;2023-11-22T06:19:15;11.83;;;7.30;;
8871;SDS011;4472;52.092;9.820;2023-11-22T06:22:03;10.60;;;7.40;;
8871;SDS011;4472;52.092;9.820;2023-11-22T06:24:51;13.43;;;7.47;;
8871;SDS011;4472;52.092;9.820;2023-11-22T06:27:39;10.23;;;6.67;;
8871;SDS011;4472;52.092;9.820;2023-11-22T06:30:26;10.47;;;6.90;;
8871;SDS011;4472;52.092;9.820;2023-11-22T06:33:15;13.97;;;7.27;;
8871;SDS011;4472;52.092;9.820;2023-11-22T06:39:26;14.33;;;7.60;;
8871;SDS011;4472;52.092;9.820;2023-11-22T06:42:13;12.03;;;6.93;;
8871;SDS011;4472;52.092;9.820;2023-11-22T06:45:05;12.60;;;7.17;;
8871;SDS011;4472;52.092;9.820;2023-11-22T06:47:55;15.10;;;7.50;;
8871;SDS011;4472;52.092;9.820;2023-11-22T06:50:43;15.23;;;7.60;;
8871;SDS011;4472;52.092;9.820;2023-11-22T06:53:31;12.43;;;7.53;;
8871;SDS011;4472;52.092;9.820;2023-11-22T06:56:20;15.83;;;8.63;;
8871;SDS011;4472;52.092;9.820;2023-11-22T06:59:08;17.37;;;9.30;;
8871;SDS011;4472;52.092;9.820;2023-11-22T07:01:56;37.87;;;16.60;;
8871;SDS011;4472;52.092;9.820;2023-11-22T07:04:43;18.67;;;10.47;;
8871;SDS011;4472;52.092;9.820;2023-11-22T07:07:31;25.17;;;10.33;;
8871;SDS011;4472;52.092;9.820;2023-11-22T07:10:19;16.87;;;9.53;;
8871;SDS011;4472;52.092;9.820;2023-11-22T07:13:08;15.63;;;8.87;;
8871;SDS011;4472;52.092;9.820;2023-11-22T07:15:55;15.63;;;8.87;;
8871;SDS011;4472;52.092;9.820;2023-11-22T07:18:43;16.33;;;8.10;;
8871;SDS011;4472;52.092;9.820;2023-11-22T07:21:31;12.80;;;8.30;;
8871;SDS011;4472;52.092;9.820;2023-11-22T07:24:23;13.30;;;8.00;;
8871;SDS011;4472;52.092;9.820;2023-11-22T07:27:11;11.83;;;7.50;;
8871;SDS011;4472;52.092;9.820;2023-11-22T07:30:00;12.47;;;7.60;;
8871;SDS011;4472;52.092;9.820;2023-11-22T07:32:47;11.30;;;7.80;;
8871;SDS011;4472;52.092;9.820;2023-11-22T07:35:34;11.33;;;6.80;;
8871;SDS011;4472;52.092;9.820;2023-11-22T07:38:22;13.33;;;7.37;;
8871;SDS011;4472;52.092;9.820;2023-11-22T07:41:10;11.77;;;7.47;;
8871;SDS011;4472;52.092;9.820;2023-11-22T07:55:22;15.03;;;7.40;;
8871;SDS011;4472;52.092;9.820;2023-11-22T07:58:10;18.80;;;9.80;;
8871;SDS011;4472;52.092;9.820;2023-11-22T08:00:58;42.50;;;22.30;;
8871;SDS011;4472;52.092;9.820;2023-11-22T08:03:45;25.40;;;15.10;;
8871;SDS011;4472;52.092;9.820;2023-11-22T08:06:33;20.63;;;11.20;;
8871;SDS011;4472;52.092;9.820;2023-11-22T08:09:21;17.93;;;10.83;;
8871;SDS011;4472;52.092;9.820;2023-11-22T08:12:09;25.60;;;11.90;;
8871;SDS011;4472;52.092;9.820;2023-11-22T08:14:58;22.13;;;14.33;;
8871;SDS011;4472;52.092;9.820;2023-11-22T08:17:47;15.73;;;9.90;;
8871;SDS011;4472;52.092;9.820;2023-11-22T08:24:19;20.07;;;13.83;;
8871;SDS011;4472;52.092;9.820;2023-11-22T08:27:06;11.87;;;9.20;;
8871;SDS011;4472;52.092;9.820;2023-11-22T08:29:55;9.50;;;7.10;;
8871;SDS011;4472;52.092;9.820;2023-11-22T08:36:25;11.00;;;6.73;;
8871;SDS011;4472;52.092;9.820;2023-11-22T08:42:20;9.57;;;6.93;;
8871;SDS011;4472;52.092;9.820;2023-11-22T08:45:26;10.93;;;7.40;;
8871;SDS011;4472;52.092;9.820;2023-11-22T09:00:10;12.93;;;7.73;;
8871;SDS011;4472;52.092;9.820;2023-11-22T09:03:02;12.13;;;7.03;;
8871;SDS011;4472;52.092;9.820;2023-11-22T09:05:59;14.27;;;7.03;;
8871;SDS011;4472;52.092;9.820;2023-11-22T09:08:48;10.03;;;6.30;;
8871;SDS011;4472;52.092;9.820;2023-11-22T09:11:52;6.87;;;6.00;;
8871;SDS011;4472;52.092;9.820;2023-11-22T09:29:11;4.97;;;4.10;;
8871;SDS011;4472;52.092;9.820;2023-11-22T09:32:01;5.73;;;4.67;;
8871;SDS011;4472;52.092;9.820;2023-11-22T09:34:51;6.97;;;4.67;;
8871;SDS011;4472;52.092;9.820;2023-11-22T09:45:19;8.43;;;5.13;;
8871;SDS011;4472;52.092;9.820;2023-11-22T09:48:14;7.73;;;5.50;;
8871;SDS011;4472;52.092;9.820;2023-11-22T10:13:18;6.83;;;5.20;;
8871;SDS011;4472;52.092;9.820;2023-11-22T10:30:22;7.17;;;4.90;;
8871;SDS011;4472;52.092;9.820;2023-11-22T10:33:10;5.53;;;4.60;;
8871;SDS011;4472;52.092;9.820;2023-11-22T10:36:00;7.23;;;5.57;;
8871;SDS011;4472;52.092;9.820;2023-11-22T10:38:49;7.33;;;5.00;;
8871;SDS011;4472;52.092;9.820;2023-11-22T10:53:20;7.00;;;4.60;;
8871;SDS011;4472;52.092;9.820;2023-11-22T10:56:12;7.80;;;5.20;;
8871;SDS011;4472;52.092;9.820;2023-11-22T10:59:28;8.37;;;5.20;;
8871;SDS011;4472;52.092;9.820;2023-11-22T11:31:42;6.73;;;5.23;;
8871;SDS011;4472;52.092;9.820;2023-11-22T11:53:02;10.60;;;7.90;;
8871;SDS011;4472;52.092;9.820;2023-11-22T11:56:09;9.37;;;5.90;;
8871;SDS011;4472;52.092;9.820;2023-11-22T12:02:53;7.43;;;5.83;;
8871;SDS011;4472;52.092;9.820;2023-11-22T12:05:41;9.03;;;6.00;;
8871;SDS011;4472;52.092;9.820;2023-11-22T12:08:32;7.60;;;6.00;;
8871;SDS011;4472;52.092;9.820;2023-11-22T13:07:19;9.40;;;5.27;;
8871;SDS011;4472;52.092;9.820;2023-11-22T13:10:07;6.40;;;5.03;;
8871;SDS011;4472;52.092;9.820;2023-11-22T13:12:55;5.63;;;5.00;;
8871;SDS011;4472;52.092;9.820;2023-11-22T13:15:42;6.47;;;5.07;;
8871;SDS011;4472;52.092;9.820;2023-11-22T13:18:32;7.80;;;5.10;;
8871;SDS011;4472;52.092;9.820;2023-11-22T13:42:34;6.33;;;5.13;;
8871;SDS011;4472;52.092;9.820;2023-11-22T13:45:22;7.07;;;5.10;;
8871;SDS011;4472;52.092;9.820;2023-11-22T13:51:52;5.17;;;4.67;;
8871;SDS011;4472;52.092;9.820;2023-11-22T13:54:39;6.77;;;5.00;;
8871;SDS011;4472;52.092;9.820;2023-11-22T14:05:10;6.90;;;5.07;;
8871;SDS011;4472;52.092;9.820;2023-11-22T14:07:57;7.73;;;5.07;;
8871;SDS011;4472;52.092;9.820;2023-11-22T14:14:27;7.77;;;5.53;;
8871;SDS011;4472;52.092;9.820;2023-11-22T14:17:15;17.93;;;11.13;;
8871;SDS011;4472;52.092;9.820;2023-11-22T14:20:07;15.20;;;9.90;;
8871;SDS011;4472;52.092;9.820;2023-11-22T14:29:57;17.03;;;8.20;;
8871;SDS011;4472;52.092;9.820;2023-11-22T14:36:29;20.40;;;9.00;;
8871;SDS011;4472;52.092;9.820;2023-11-22T14:39:17;12.93;;;7.23;;
8871;SDS011;4472;52.092;9.820;2023-11-22T14:42:07;19.50;;;9.47;;
8871;SDS011;4472;52.092;9.820;2023-11-22T14:52:32;14.50;;;8.97;;
8871;SDS011;4472;52.092;9.820;2023-11-22T14:59:04;8.03;;;5.77;;
8871;SDS011;4472;52.092;9.820;2023-11-22T15:01:51;6.63;;;5.40;;
8871;SDS011;4472;52.092;9.820;2023-11-22T15:04:39;7.00;;;4.83;;
8871;SDS011;4472;52.092;9.820;2023-11-22T15:07:28;7.30;;;4.90;;
8871;SDS011;4472;52.092;9.820;2023-11-22T15:12:46;5.43;;;4.60;;
8871;SDS011;4472;52.092;9.820;2023-11-22T15:23:14;6.63;;;4.33;;
8871;SDS011;4472;52.092;9.820;2023-11-22T15:36:48;6.20;;;4.83;;
8871;SDS011;4472;52.092;9.820;2023-11-22T15:47:05;6.03;;;4.93;;
8871;SDS011;4472;52.092;9.820;2023-11-22T15:57:29;6.03;;;3.97;;
8871;SDS011;4472;52.092;9.820;2023-11-22T16:08:27;6.47;;;4.20;;
8871;SDS011;4472;52.092;9.820;2023-11-22T16:14:56;4.87;;;4.43;;
8871;SDS011;4472;52.092;9.820;2023-11-22T16:17:44;5.57;;;4.77;;
8871;SDS011;4472;52.092;9.820;2023-11-22T16:20:32;5.27;;;4.60;;
8871;SDS011;4472;52.092;9.820;2023-11-22T16:23:19;6.87;;;4.63;;
8871;SDS011;4472;52.092;9.820;2023-11-22T16:39:50;6.77;;;5.10;;
8871;SDS011;4472;52.092;9.820;2023-11-22T16:42:40;5.10;;;4.37;;
8871;SDS011;4472;52.092;9.820;2023-11-22T16:45:27;5.27;;;4.37;;
8871;SDS011;4472;52.092;9.820;2023-11-22T16:48:17;7.07;;;5.13;;
8871;SDS011;4472;52.092;9.820;2023-11-22T16:51:05;5.37;;;4.57;;
8871;SDS011;4472;52.092;9.820;2023-11-22T16:57:35;6.47;;;5.10;;
8871;SDS011;4472;52.092;9.820;2023-11-22T17:00:24;7.73;;;4.60;;
8871;SDS011;4472;52.092;9.820;2023-11-22T17:03:12;5.70;;;4.87;;
8871;SDS011;4472;52.092;9.820;2023-11-22T17:05:59;7.53;;;4.80;;
8871;SDS011;4472;52.092;9.820;2023-11-22T17:08:49;6.63;;;4.57;;
8871;SDS011;4472;52.092;9.820;2023-11-22T17:11:36;5.60;;;4.50;;
8871;SDS011;4472;52.092;9.820;2023-11-22T17:14:23;5.30;;;4.73;;
8871;SDS011;4472;52.092;9.820;2023-11-22T17:17:13;6.10;;;4.77;;
8871;SDS011;4472;52.092;9.820;2023-11-22T17:20:00;6.47;;;4.43;;
8871;SDS011;4472;52.092;9.820;2023-11-22T17:22:49;7.87;;;4.80;;
8871;SDS011;4472;52.092;9.820;2023-11-22T17:25:36;4.87;;;4.37;;
8871;SDS011;4472;52.092;9.820;2023-11-22T17:28:24;7.37;;;5.07;;
8871;SDS011;4472;52.092;9.820;2023-11-22T17:31:11;5.43;;;4.50;;
8871;SDS011;4472;52.092;9.820;2023-11-22T17:34:02;5.70;;;4.70;;
8871;SDS011;4472;52.092;9.820;2023-11-22T17:36:51;5.57;;;4.30;;
8871;SDS011;4472;52.092;9.820;2023-11-22T17:39:39;6.73;;;4.90;;
8871;SDS011;4472;52.092;9.820;2023-11-22T17:42:26;8.53;;;4.90;;
8871;SDS011;4472;52.092;9.820;2023-11-22T17:45:15;5.10;;;4.43;;
8871;SDS011;4472;52.092;9.820;2023-11-22T17:48:02;6.47;;;4.30;;
8871;SDS011;4472;52.092;9.820;2023-11-22T17:50:52;7.10;;;4.77;;
8871;SDS011;4472;52.092;9.820;2023-11-22T17:53:49;5.17;;;4.23;;
8871;SDS011;4472;52.092;9.820;2023-11-22T17:56:36;6.67;;;4.60;;
8871;SDS011;4472;52.092;9.820;2023-11-22T17:59:24;5.47;;;4.83;;
8871;SDS011;4472;52.092;9.820;2023-11-22T18:02:11;4.80;;;4.30;;
8871;SDS011;4472;52.092;9.820;2023-11-22T18:05:00;6.27;;;4.30;;
8871;SDS011;4472;52.092;9.820;2023-11-22T18:07:51;6.20;;;4.40;;
8871;SDS011;4472;52.092;9.820;2023-11-22T18:10:38;4.77;;;4.37;;
8871;SDS011;4472;52.092;9.820;2023-11-22T18:13:26;5.67;;;4.63;;
8871;SDS011;4472;52.092;9.820;2023-11-22T18:16:13;6.23;;;4.37;;
8871;SDS011;4472;52.092;9.820;2023-11-22T18:19:01;5.03;;;4.33;;
8871;SDS011;4472;52.092;9.820;2023-11-22T18:21:48;6.37;;;4.20;;
8871;SDS011;4472;52.092;9.820;2023-11-22T18:24:37;6.73;;;4.70;;
8871;SDS011;4472;52.092;9.820;2023-11-22T18:27:24;9.37;;;4.90;;
8871;SDS011;4472;52.092;9.820;2023-11-22T18:30:12;5.83;;;4.43;;
8871;SDS011;4472;52.092;9.820;2023-11-22T18:32:59;5.23;;;3.90;;
8871;SDS011;4472;52.092;9.820;2023-11-22T18:35:47;6.90;;;4.13;;
8871;SDS011;4472;52.092;9.820;2023-11-22T18:38:35;4.43;;;3.93;;
8871;SDS011;4472;52.092;9.820;2023-11-22T18:45:07;6.90;;;3.93;;
8871;SDS011;4472;52.092;9.820;2023-11-22T18:47:57;6.27;;;4.23;;
8871;SDS011;4472;52.092;9.820;2023-11-22T18:50:45;5.90;;;4.50;;
8871;SDS011;4472;52.092;9.820;2023-11-22T18:53:32;5.53;;;4.20;;
8871;SDS011;4472;52.092;9.820;2023-11-22T18:56:20;5.57;;;4.30;;
8871;SDS011;4472;52.092;9.820;2023-11-22T18:59:07;5.27;;;3.83;;
8871;SDS011;4472;52.092;9.820;2023-11-22T19:01:57;5.27;;;4.00;;
8871;SDS011;4472;52.092;9.820;2023-11-22T19:04:45;5.37;;;3.90;;
8871;SDS011;4472;52.092;9.820;2023-11-22T19:07:32;5.17;;;3.87;;
8871;SDS011;4472;52.092;9.820;2023-11-22T19:10:20;5.63;;;3.80;;
8871;SDS011;4472;52.092;9.820;2023-11-22T19:13:07;5.87;;;4.30;;
8871;SDS011;4472;52.092;9.820;2023-11-22T19:15:58;5.40;;;3.70;;
8871;SDS011;4472;52.092;9.820;2023-11-22T19:18:47;6.57;;;4.03;;
8871;SDS011;4472;52.092;9.820;2023-11-22T19:21:37;5.77;;;4.40;;
8871;SDS011;4472;52.092;9.820;2023-11-22T19:24:24;4.50;;;3.70;;
8871;SDS011;4472;52.092;9.820;2023-11-22T19:27:12;3.90;;;3.57;;
8871;SDS011;4472;52.092;9.820;2023-11-22T19:30:00;5.97;;;3.80;;
8871;SDS011;4472;52.092;9.820;2023-11-22T19:32:49;6.10;;;3.70;;
8871;SDS011;4472;52.092;9.820;2023-11-22T19:35:39;5.97;;;4.37;;
8871;SDS011;4472;52.092;9.820;2023-11-22T19:38:26;6.37;;;4.33;;
8871;SDS011;4472;52.092;9.820;2023-11-22T19:41:16;4.10;;;3.70;;
8871;SDS011;4472;52.092;9.820;2023-11-22T19:44:03;4.60;;;4.00;;
8871;SDS011;4472;52.092;9.820;2023-11-22T19:46:51;4.23;;;3.83;;
8871;SDS011;4472;52.092;9.820;2023-11-22T19:49:39;6.40;;;3.57;;
8871;SDS011;4472;52.092;9.820;2023-11-22T19:52:28;3.77;;;3.30;;
8871;SDS011;4472;52.092;9.820;2023-11-22T19:55:16;4.13;;;3.73;;
8871;SDS011;4472;52.092;9.820;2023-11-22T19:58:17;4.47;;;3.90;;
8871;SDS011;4472;52.092;9.820;2023-11-22T20:01:05;4.27;;;3.77;;
8871;SDS011;4472;52.092;9.820;2023-11-22T20:03:53;4.27;;;3.80;;
8871;SDS011;4472;52.092;9.820;2023-11-22T20:06:40;5.40;;;4.10;;
8871;SDS011;4472;52.092;9.820;2023-11-22T20:09:28;4.20;;;3.70;;
8871;SDS011;4472;52.092;9.820;2023-11-22T20:12:16;4.03;;;3.63;;
8871;SDS011;4472;52.092;9.820;2023-11-22T20:15:04;5.53;;;4.27;;
8871;SDS011;4472;52.092;9.820;2023-11-22T20:17:53;7.63;;;4.30;;
8871;SDS011;4472;52.092;9.820;2023-11-22T20:20:40;4.40;;;3.20;;
8871;SDS011;4472;52.092;9.820;2023-11-22T20:23:28;5.03;;;3.70;;
8871;SDS011;4472;52.092;9.820;2023-11-22T20:26:16;6.17;;;4.10;;
8871;SDS011;4472;52.092;9.820;2023-11-22T20:29:04;5.27;;;4.13;;
8871;SDS011;4472;52.092;9.820;2023-11-22T20:31:52;5.03;;;4.10;;
8871;SDS011;4472;52.092;9.820;2023-11-22T20:34:40;8.97;;;5.57;;
8871;SDS011;4472;52.092;9.820;2023-11-22T20:37:28;5.60;;;4.20;;
8871;SDS011;4472;52.092;9.820;2023-11-22T20:40:17;3.37;;;3.07;;
8871;SDS011;4472;52.092;9.820;2023-11-22T20:43:06;5.67;;;4.60;;
8871;SDS011;4472;52.092;9.820;2023-11-22T20:45:53;4.50;;;3.90;;
8871;SDS011;4472;52.092;9.820;2023-11-22T20:48:43;4.10;;;3.67;;
8871;SDS011;4472;52.092;9.820;2023-11-22T20:51:30;6.47;;;4.20;;
8871;SDS011;4472;52.092;9.820;2023-11-22T20:54:17;10.43;;;7.00;;
8871;SDS011;4472;52.092;9.820;2023-11-22T20:57:06;15.53;;;9.37;;
8871;SDS011;4472;52.092;9.820;2023-11-22T20:59:55;7.60;;;5.50;;
8871;SDS011;4472;52.092;9.820;2023-11-22T21:02:43;5.40;;;3.73;;
8871;SDS011;4472;52.092;9.820;2023-11-22T21:05:31;6.87;;;4.73;;
8871;SDS011;4472;52.092;9.820;2023-11-22T21:08:19;5.23;;;3.93;;
8871;SDS011;4472;52.092;9.820;2023-11-22T21:11:06;6.43;;;4.40;;
8871;SDS011;4472;52.092;9.820;2023-11-22T21:13:54;6.93;;;4.50;;
8871;SDS011;4472;52.092;9.820;2023-11-22T21:16:44;6.93;;;4.30;;
8871;SDS011;4472;52.092;9.820;2023-11-22T21:19:32;6.03;;;4.10;;
8871;SDS011;4472;52.092;9.820;2023-11-22T21:22:20;6.20;;;4.23;;
8871;SDS011;4472;52.092;9.820;2023-11-22T21:25:07;5.37;;;3.97;;
8871;SDS011;4472;52.092;9.820;2023-11-22T21:27:54;8.53;;;4.53;;
8871;SDS011;4472;52.092;9.820;2023-11-22T21:30:42;9.23;;;4.87;;
8871;SDS011;4472;52.092;9.820;2023-11-22T21:33:32;3.47;;;3.17;;
8871;SDS011;4472;52.092;9.820;2023-11-22T21:36:19;4.87;;;3.83;;
8871;SDS011;4472;52.092;9.820;2023-11-22T21:39:07;4.07;;;3.60;;
8871;SDS011;4472;52.092;9.820;2023-11-22T21:41:58;6.23;;;4.30;;
8871;SDS011;4472;52.092;9.820;2023-11-22T21:44:47;8.83;;;5.03;;
8871;SDS011;4472;52.092;9.820;2023-11-22T21:47:34;6.90;;;4.20;;
8871;SDS011;4472;52.092;9.820;2023-11-22T21:50:23;9.97;;;5.97;;
8871;SDS011;4472;52.092;9.820;2023-11-22T21:53:11;9.77;;;6.00;;
8871;SDS011;4472;52.092;9.820;2023-11-22T21:55:58;12.23;;;6.40;;
8871;SDS011;4472;52.092;9.820;2023-11-22T21:58:49;11.67;;;5.77;;
8871;SDS011;4472;52.092;9.820;2023-11-22T22:02:24;10.10;;;5.63;;
8871;SDS011;4472;52.092;9.820;2023-11-22T22:05:12;12.40;;;6.97;;
8871;SDS011;4472;52.092;9.820;2023-11-22T22:08:05;9.93;;;5.70;;
8871;SDS011;4472;52.092;9.820;2023-11-22T22:10:52;13.27;;;5.83;;
8871;SDS011;4472;52.092;9.820;2023-11-22T22:13:39;6.63;;;4.83;;
8871;SDS011;4472;52.092;9.820;2023-11-22T22:16:27;8.00;;;4.87;;
8871;SDS011;4472;52.092;9.820;2023-11-22T22:19:14;8.20;;;5.37;;
8871;SDS011;4472;52.092;9.820;2023-11-22T22:22:02;6.33;;;4.10;;
8871;SDS011;4472;52.092;9.820;2023-11-22T22:24:51;9.00;;;5.00;;
8871;SDS011;4472;52.092;9.820;2023-11-22T22:27:39;13.73;;;6.23;;
8871;SDS011;4472;52.092;9.820;2023-11-22T22:30:27;9.53;;;4.80;;
8871;SDS011;4472;52.092;9.820;2023-11-22T22:33:14;7.67;;;5.20;;
8871;SDS011;4472;52.092;9.820;2023-11-22T22:36:02;5.87;;;4.67;;
8871;SDS011;4472;52.092;9.820;2023-11-22T22:38:50;4.23;;;3.83;;
8871;SDS011;4472;52.092;9.820;2023-11-22T22:41:38;5.70;;;3.53;;
8871;SDS011;4472;52.092;9.820;2023-11-22T22:44:26;4.53;;;2.90;;
8871;SDS011;4472;52.092;9.820;2023-11-22T22:47:14;3.70;;;3.27;;
8871;SDS011;4472;52.092;9.820;2023-11-22T22:50:02;4.67;;;3.50;;
8871;SDS011;4472;52.092;9.820;2023-11-22T22:52:50;4.00;;;3.30;;
8871;SDS011;4472;52.092;9.820;2023-11-22T22:55:37;4.57;;;3.20;;
8871;SDS011;4472;52.092;9.820;2023-11-22T22:58:28;3.23;;;2.93;;
8871;SDS011;4472;52.092;9.820;2023-11-22T23:01:16;3.97;;;3.10;;
8871;SDS011;4472;52.092;9.820;2023-11-22T23:04:03;3.73;;;3.30;;
8871;SDS011;4472;52.092;9.820;2023-11-22T23:06:51;4.90;;;3.30;;
8871;SDS011;4472;52.092;9.820;2023-11-22T23:12:50;3.40;;;2.87;;